<?xml version="1.0" encoding="UTF-8" standalone="no" ?>
<gpx xmlns="http://www.topografix.com/GPX/1/1" xmlns:xsi="http://www.w3.org/2001/XMLSchema-instance" xsi:schemaLocation="http://www.topografix.com/GPX/1/1 http://www.topografix.com/GPX/1/1/gpx.xsd" version="1.1" creator="VisuGPX - https://www.visugpx.com">
  <metadata>
    <name>Tour de France 2019</name>
    <desc><![CDATA[4272km en 2 mois en tandem avec notre petit chien dans le panier avant]]></desc>
  </metadata>
  <trk>
    <name><![CDATA[Tracé 20191108-121559]]></name>
    <trkseg>
      <trkpt lat="46.4965" lon="-1.77186">
        <ele>46.153</ele>
        <time>2019-11-08T11:16:26Z</time>
      </trkpt>
      <trkpt lat="46.49619" lon="-1.77179">
        <ele>25.476</ele>
        <time>2019-11-08T11:17:08Z</time>
      </trkpt>
      <trkpt lat="46.4965" lon="-1.77173">
        <ele>16.901</ele>
        <time>2019-11-08T11:18:41Z</time>
      </trkpt>
      <trkpt lat="46.49658" lon="-1.77201">
        <ele>12.243</ele>
        <time>2019-11-08T11:24:59Z</time>
      </trkpt>
      <trkpt lat="46.49657" lon="-1.77248">
        <ele>12.696</ele>
        <time>2019-11-08T11:26:35Z</time>
      </trkpt>
      <trkpt lat="46.49652" lon="-1.77395">
        <ele>19.492</ele>
        <time>2019-11-08T11:27:08Z</time>
      </trkpt>
      <trkpt lat="46.49648" lon="-1.775">
        <ele>15.011</ele>
        <time>2019-11-08T11:29:29Z</time>
      </trkpt>
      <trkpt lat="46.49618" lon="-1.77636">
        <ele>15.035</ele>
        <time>2019-11-08T11:30:02Z</time>
      </trkpt>
      <trkpt lat="46.49598" lon="-1.77725">
        <ele>14.539</ele>
        <time>2019-11-08T11:30:38Z</time>
      </trkpt>
      <trkpt lat="46.49588" lon="-1.77816">
        <ele>18.497</ele>
        <time>2019-11-08T11:31:08Z</time>
      </trkpt>
      <trkpt lat="46.49571" lon="-1.78015">
        <ele>22.171</ele>
        <time>2019-11-08T11:31:38Z</time>
      </trkpt>
      <trkpt lat="46.49629" lon="-1.78229">
        <ele>21.821</ele>
        <time>2019-11-08T11:32:11Z</time>
      </trkpt>
      <trkpt lat="46.4978" lon="-1.78282">
        <ele>13.918</ele>
        <time>2019-11-08T11:32:41Z</time>
      </trkpt>
      <trkpt lat="46.49856" lon="-1.78474">
        <ele>7.393</ele>
        <time>2019-11-08T11:33:11Z</time>
      </trkpt>
      <trkpt lat="46.49936" lon="-1.78432">
        <ele>14.272</ele>
        <time>2019-11-08T11:33:44Z</time>
      </trkpt>
      <trkpt lat="46.50032" lon="-1.78542">
        <ele>16.849</ele>
        <time>2019-11-08T11:34:14Z</time>
      </trkpt>
      <trkpt lat="46.50176" lon="-1.78604">
        <ele>10.532</ele>
        <time>2019-11-08T11:34:44Z</time>
      </trkpt>
      <trkpt lat="46.50296" lon="-1.78716">
        <ele>12.644</ele>
        <time>2019-11-08T11:35:14Z</time>
      </trkpt>
      <trkpt lat="46.50419" lon="-1.78852">
        <ele>9.115</ele>
        <time>2019-11-08T11:35:47Z</time>
      </trkpt>
      <trkpt lat="46.50537" lon="-1.78939">
        <ele>10.201</ele>
        <time>2019-11-08T11:36:17Z</time>
      </trkpt>
      <trkpt lat="46.50506" lon="-1.79111">
        <ele>6.566</ele>
        <time>2019-11-08T11:36:47Z</time>
      </trkpt>
      <trkpt lat="46.50453" lon="-1.79323">
        <ele>5.809</ele>
        <time>2019-11-08T11:37:20Z</time>
      </trkpt>
      <trkpt lat="46.5039" lon="-1.79515">
        <ele>5.57</ele>
        <time>2019-11-08T11:37:50Z</time>
      </trkpt>
      <trkpt lat="46.50314" lon="-1.79726">
        <ele>5.817</ele>
        <time>2019-11-08T11:38:20Z</time>
      </trkpt>
      <trkpt lat="46.50272" lon="-1.79928">
        <ele>8.144</ele>
        <time>2019-11-08T11:38:53Z</time>
      </trkpt>
      <trkpt lat="46.50248" lon="-1.80071">
        <ele>10.037</ele>
        <time>2019-11-08T11:39:23Z</time>
      </trkpt>
      <trkpt lat="46.50235" lon="-1.80191">
        <ele>11.561</ele>
        <time>2019-11-08T11:39:53Z</time>
      </trkpt>
      <trkpt lat="46.50213" lon="-1.80384">
        <ele>13.491</ele>
        <time>2019-11-08T11:40:26Z</time>
      </trkpt>
      <trkpt lat="46.50178" lon="-1.80529">
        <ele>16.055</ele>
        <time>2019-11-08T11:40:56Z</time>
      </trkpt>
      <trkpt lat="46.50219" lon="-1.8067">
        <ele>17.656</ele>
        <time>2019-11-08T11:41:26Z</time>
      </trkpt>
      <trkpt lat="46.50231" lon="-1.80841">
        <ele>14.687</ele>
        <time>2019-11-08T11:41:59Z</time>
      </trkpt>
      <trkpt lat="46.50265" lon="-1.81003">
        <ele>15.479</ele>
        <time>2019-11-08T11:42:29Z</time>
      </trkpt>
      <trkpt lat="46.50322" lon="-1.81272">
        <ele>10.568</ele>
        <time>2019-11-08T11:42:59Z</time>
      </trkpt>
      <trkpt lat="46.50414" lon="-1.8148">
        <ele>10.095</ele>
        <time>2019-11-08T11:43:29Z</time>
      </trkpt>
      <trkpt lat="46.50526" lon="-1.81597">
        <ele>7.07</ele>
        <time>2019-11-08T11:44:02Z</time>
      </trkpt>
      <trkpt lat="46.50634" lon="-1.81686">
        <ele>7.435</ele>
        <time>2019-11-08T11:44:32Z</time>
      </trkpt>
      <trkpt lat="46.50752" lon="-1.81718">
        <ele>7.308</ele>
        <time>2019-11-08T11:45:02Z</time>
      </trkpt>
      <trkpt lat="46.50871" lon="-1.81779">
        <ele>10.03</ele>
        <time>2019-11-08T11:45:35Z</time>
      </trkpt>
      <trkpt lat="46.50975" lon="-1.81835">
        <ele>10.063</ele>
        <time>2019-11-08T11:46:05Z</time>
      </trkpt>
      <trkpt lat="46.51033" lon="-1.81803">
        <ele>9.038</ele>
        <time>2019-11-08T11:46:35Z</time>
      </trkpt>
      <trkpt lat="46.51051" lon="-1.8167">
        <ele>9.24</ele>
        <time>2019-11-08T11:47:08Z</time>
      </trkpt>
      <trkpt lat="46.51087" lon="-1.81571">
        <ele>11.804</ele>
        <time>2019-11-08T11:47:38Z</time>
      </trkpt>
      <trkpt lat="46.51108" lon="-1.81446">
        <ele>16.763</ele>
        <time>2019-11-08T11:48:08Z</time>
      </trkpt>
      <trkpt lat="46.51168" lon="-1.81353">
        <ele>19.623</ele>
        <time>2019-11-08T11:48:41Z</time>
      </trkpt>
      <trkpt lat="46.51275" lon="-1.81322">
        <ele>15.348</ele>
        <time>2019-11-08T11:49:11Z</time>
      </trkpt>
      <trkpt lat="46.51384" lon="-1.81191">
        <ele>17.407</ele>
        <time>2019-11-08T11:49:41Z</time>
      </trkpt>
      <trkpt lat="46.51482" lon="-1.81021">
        <ele>21.32</ele>
        <time>2019-11-08T11:50:14Z</time>
      </trkpt>
      <trkpt lat="46.51597" lon="-1.80995">
        <ele>19.925</ele>
        <time>2019-11-08T11:50:44.001Z</time>
      </trkpt>
      <trkpt lat="46.51705" lon="-1.80959">
        <ele>22.126</ele>
        <time>2019-11-08T11:51:14.001Z</time>
      </trkpt>
      <trkpt lat="46.51763" lon="-1.80987">
        <ele>22.706</ele>
        <time>2019-11-08T11:51:44.001Z</time>
      </trkpt>
      <trkpt lat="46.51825" lon="-1.81129">
        <ele>21.206</ele>
        <time>2019-11-08T11:52:17.001Z</time>
      </trkpt>
      <trkpt lat="46.51878" lon="-1.81248">
        <ele>30.511</ele>
        <time>2019-11-08T11:52:47.001Z</time>
      </trkpt>
      <trkpt lat="46.51991" lon="-1.81296">
        <ele>23.322</ele>
        <time>2019-11-08T11:53:17.001Z</time>
      </trkpt>
      <trkpt lat="46.52088" lon="-1.81252">
        <ele>22.148</ele>
        <time>2019-11-08T11:53:50.001Z</time>
      </trkpt>
      <trkpt lat="46.52177" lon="-1.81288">
        <ele>13.674</ele>
        <time>2019-11-08T11:54:20.001Z</time>
      </trkpt>
      <trkpt lat="46.52311" lon="-1.81341">
        <ele>16.593</ele>
        <time>2019-11-08T11:54:50.001Z</time>
      </trkpt>
      <trkpt lat="46.52388" lon="-1.81248">
        <ele>17.858</ele>
        <time>2019-11-08T11:55:23.001Z</time>
      </trkpt>
      <trkpt lat="46.52424" lon="-1.81018">
        <ele>11.54</ele>
        <time>2019-11-08T11:55:53.001Z</time>
      </trkpt>
      <trkpt lat="46.52429" lon="-1.80861">
        <ele>3.379</ele>
        <time>2019-11-08T11:56:23.001Z</time>
      </trkpt>
      <trkpt lat="46.52497" lon="-1.80772">
        <ele>3.738</ele>
        <time>2019-11-08T11:56:56.001Z</time>
      </trkpt>
      <trkpt lat="46.52549" lon="-1.80685">
        <ele>5.287</ele>
        <time>2019-11-08T11:57:26.001Z</time>
      </trkpt>
      <trkpt lat="46.52679" lon="-1.80676">
        <ele>7.396</ele>
        <time>2019-11-08T11:57:56.001Z</time>
      </trkpt>
      <trkpt lat="46.52791" lon="-1.80624">
        <ele>7.66</ele>
        <time>2019-11-08T11:58:29.001Z</time>
      </trkpt>
      <trkpt lat="46.52807" lon="-1.80743">
        <ele>4.801</ele>
        <time>2019-11-08T11:59:02Z</time>
      </trkpt>
      <trkpt lat="46.52884" lon="-1.80817">
        <ele>5.351</ele>
        <time>2019-11-08T11:59:32.001Z</time>
      </trkpt>
      <trkpt lat="46.52946" lon="-1.80884">
        <ele>10.786</ele>
        <time>2019-11-08T12:00:02Z</time>
      </trkpt>
      <trkpt lat="46.53073" lon="-1.80846">
        <ele>10.744</ele>
        <time>2019-11-08T12:00:35.001Z</time>
      </trkpt>
      <trkpt lat="46.53199" lon="-1.80756">
        <ele>3.809</ele>
        <time>2019-11-08T12:01:05.001Z</time>
      </trkpt>
      <trkpt lat="46.53309" lon="-1.80678">
        <ele>3.214</ele>
        <time>2019-11-08T12:01:35.001Z</time>
      </trkpt>
      <trkpt lat="46.53421" lon="-1.80599">
        <ele>6.698</ele>
        <time>2019-11-08T12:02:08.001Z</time>
      </trkpt>
      <trkpt lat="46.53504" lon="-1.80584">
        <ele>5.856</ele>
        <time>2019-11-08T12:02:41.001Z</time>
      </trkpt>
      <trkpt lat="46.53614" lon="-1.80494">
        <ele>3.745</ele>
        <time>2019-11-08T12:03:11.001Z</time>
      </trkpt>
      <trkpt lat="46.53747" lon="-1.80432">
        <ele>4.304</ele>
        <time>2019-11-08T12:03:44.001Z</time>
      </trkpt>
      <trkpt lat="46.53863" lon="-1.80366">
        <ele>4.975</ele>
        <time>2019-11-08T12:04:14.001Z</time>
      </trkpt>
      <trkpt lat="46.53963" lon="-1.80281">
        <ele>5.115</ele>
        <time>2019-11-08T12:04:44.001Z</time>
      </trkpt>
      <trkpt lat="46.54048" lon="-1.80185">
        <ele>8.667</ele>
        <time>2019-11-08T12:05:17.001Z</time>
      </trkpt>
      <trkpt lat="46.54175" lon="-1.80203">
        <ele>8.206</ele>
        <time>2019-11-08T12:05:47.001Z</time>
      </trkpt>
      <trkpt lat="46.54295" lon="-1.80184">
        <ele>5.904</ele>
        <time>2019-11-08T12:06:17.001Z</time>
      </trkpt>
      <trkpt lat="46.54297" lon="-1.8033">
        <ele>6.536</ele>
        <time>2019-11-08T12:06:50.001Z</time>
      </trkpt>
      <trkpt lat="46.54335" lon="-1.8048">
        <ele>5.331</ele>
        <time>2019-11-08T12:07:20.001Z</time>
      </trkpt>
      <trkpt lat="46.54364" lon="-1.80642">
        <ele>6.954</ele>
        <time>2019-11-08T12:07:50.001Z</time>
      </trkpt>
      <trkpt lat="46.54353" lon="-1.80812">
        <ele>2.85</ele>
        <time>2019-11-08T12:08:20.001Z</time>
      </trkpt>
      <trkpt lat="46.54389" lon="-1.80978">
        <ele>5.54</ele>
        <time>2019-11-08T12:08:53.001Z</time>
      </trkpt>
      <trkpt lat="46.5446" lon="-1.81016">
        <ele>12.32</ele>
        <time>2019-11-08T12:09:23.001Z</time>
      </trkpt>
      <trkpt lat="46.54556" lon="-1.81014">
        <ele>12.029</ele>
        <time>2019-11-08T12:09:53.001Z</time>
      </trkpt>
      <trkpt lat="46.54662" lon="-1.81085">
        <ele>14.056</ele>
        <time>2019-11-08T12:10:26.001Z</time>
      </trkpt>
      <trkpt lat="46.54747" lon="-1.81047">
        <ele>11.157</ele>
        <time>2019-11-08T12:10:56.001Z</time>
      </trkpt>
      <trkpt lat="46.54809" lon="-1.80919">
        <ele>10.403</ele>
        <time>2019-11-08T12:11:26.001Z</time>
      </trkpt>
      <trkpt lat="46.54916" lon="-1.80972">
        <ele>8.962</ele>
        <time>2019-11-08T12:11:59.001Z</time>
      </trkpt>
      <trkpt lat="46.5502" lon="-1.80996">
        <ele>13.117</ele>
        <time>2019-11-08T12:12:29.001Z</time>
      </trkpt>
      <trkpt lat="46.55136" lon="-1.81089">
        <ele>8.102</ele>
        <time>2019-11-08T12:12:59.001Z</time>
      </trkpt>
      <trkpt lat="46.55235" lon="-1.81183">
        <ele>10.457</ele>
        <time>2019-11-08T12:13:32.001Z</time>
      </trkpt>
      <trkpt lat="46.55294" lon="-1.81228">
        <ele>10.57</ele>
        <time>2019-11-08T12:14:08.001Z</time>
      </trkpt>
      <trkpt lat="46.55336" lon="-1.81343">
        <ele>8.354</ele>
        <time>2019-11-08T12:14:38.001Z</time>
      </trkpt>
      <trkpt lat="46.55413" lon="-1.81463">
        <ele>10.945</ele>
        <time>2019-11-08T12:15:11.001Z</time>
      </trkpt>
      <trkpt lat="46.55478" lon="-1.81609">
        <ele>8.873</ele>
        <time>2019-11-08T12:15:41.001Z</time>
      </trkpt>
      <trkpt lat="46.5554" lon="-1.8158">
        <ele>13.46</ele>
        <time>2019-11-08T12:16:11.001Z</time>
      </trkpt>
      <trkpt lat="46.55604" lon="-1.81456">
        <ele>18.767</ele>
        <time>2019-11-08T12:16:41.001Z</time>
      </trkpt>
      <trkpt lat="46.55595" lon="-1.81288">
        <ele>17.434</ele>
        <time>2019-11-08T12:17:14.001Z</time>
      </trkpt>
      <trkpt lat="46.55638" lon="-1.81149">
        <ele>8.396</ele>
        <time>2019-11-08T12:17:44.001Z</time>
      </trkpt>
      <trkpt lat="46.55656" lon="-1.81072">
        <ele>10.078</ele>
        <time>2019-11-08T12:18:35.001Z</time>
      </trkpt>
      <trkpt lat="46.55745" lon="-1.80922">
        <ele>11.522</ele>
        <time>2019-11-08T12:19:08.001Z</time>
      </trkpt>
      <trkpt lat="46.55868" lon="-1.80876">
        <ele>10.046</ele>
        <time>2019-11-08T12:19:38.001Z</time>
      </trkpt>
      <trkpt lat="46.55971" lon="-1.8094">
        <ele>10.391</ele>
        <time>2019-11-08T12:20:08.001Z</time>
      </trkpt>
      <trkpt lat="46.561" lon="-1.81057">
        <ele>7.89</ele>
        <time>2019-11-08T12:20:41.001Z</time>
      </trkpt>
      <trkpt lat="46.56217" lon="-1.80999">
        <ele>6.89</ele>
        <time>2019-11-08T12:21:11.001Z</time>
      </trkpt>
      <trkpt lat="46.56341" lon="-1.81019">
        <ele>8.123</ele>
        <time>2019-11-08T12:21:41.001Z</time>
      </trkpt>
      <trkpt lat="46.56414" lon="-1.81181">
        <ele>13.154</ele>
        <time>2019-11-08T12:22:14.001Z</time>
      </trkpt>
      <trkpt lat="46.56496" lon="-1.81297">
        <ele>20.605</ele>
        <time>2019-11-08T12:22:44.001Z</time>
      </trkpt>
      <trkpt lat="46.56596" lon="-1.81412">
        <ele>20.196</ele>
        <time>2019-11-08T12:23:14.001Z</time>
      </trkpt>
      <trkpt lat="46.56657" lon="-1.81585">
        <ele>15.799</ele>
        <time>2019-11-08T12:23:47.001Z</time>
      </trkpt>
      <trkpt lat="46.56711" lon="-1.8169">
        <ele>24.592</ele>
        <time>2019-11-08T12:24:17.001Z</time>
      </trkpt>
      <trkpt lat="46.56784" lon="-1.81818">
        <ele>33.169</ele>
        <time>2019-11-08T12:24:47.001Z</time>
      </trkpt>
      <trkpt lat="46.56824" lon="-1.81958">
        <ele>42.41</ele>
        <time>2019-11-08T12:25:17.001Z</time>
      </trkpt>
      <trkpt lat="46.56936" lon="-1.81976">
        <ele>13.511</ele>
        <time>2019-11-08T12:25:50.001Z</time>
      </trkpt>
      <trkpt lat="46.5703" lon="-1.8186">
        <ele>5.326</ele>
        <time>2019-11-08T12:26:20.001Z</time>
      </trkpt>
      <trkpt lat="46.57133" lon="-1.81888">
        <ele>5.431</ele>
        <time>2019-11-08T12:26:50.001Z</time>
      </trkpt>
      <trkpt lat="46.57211" lon="-1.82066">
        <ele>7.312</ele>
        <time>2019-11-08T12:27:23.001Z</time>
      </trkpt>
      <trkpt lat="46.57319" lon="-1.82109">
        <ele>11.861</ele>
        <time>2019-11-08T12:27:53.001Z</time>
      </trkpt>
      <trkpt lat="46.57429" lon="-1.82164">
        <ele>7.112</ele>
        <time>2019-11-08T12:28:23.001Z</time>
      </trkpt>
      <trkpt lat="46.57567" lon="-1.82235">
        <ele>12.755</ele>
        <time>2019-11-08T12:28:56.001Z</time>
      </trkpt>
      <trkpt lat="46.57628" lon="-1.82311">
        <ele>13.034</ele>
        <time>2019-11-08T12:29:26.001Z</time>
      </trkpt>
      <trkpt lat="46.57631" lon="-1.82419">
        <ele>13.698</ele>
        <time>2019-11-08T12:29:56.001Z</time>
      </trkpt>
      <trkpt lat="46.57708" lon="-1.82508">
        <ele>15.436</ele>
        <time>2019-11-08T12:30:29.001Z</time>
      </trkpt>
      <trkpt lat="46.5778" lon="-1.82657">
        <ele>11.091</ele>
        <time>2019-11-08T12:30:59.001Z</time>
      </trkpt>
      <trkpt lat="46.57814" lon="-1.82814">
        <ele>10.547</ele>
        <time>2019-11-08T12:31:29.001Z</time>
      </trkpt>
      <trkpt lat="46.57842" lon="-1.83037">
        <ele>4.88</ele>
        <time>2019-11-08T12:32:02Z</time>
      </trkpt>
      <trkpt lat="46.57888" lon="-1.83205">
        <ele>10.569</ele>
        <time>2019-11-08T12:32:32.001Z</time>
      </trkpt>
      <trkpt lat="46.57952" lon="-1.83362">
        <ele>15.885</ele>
        <time>2019-11-08T12:33:02Z</time>
      </trkpt>
      <trkpt lat="46.58001" lon="-1.83459">
        <ele>17.869</ele>
        <time>2019-11-08T12:33:32.001Z</time>
      </trkpt>
      <trkpt lat="46.58058" lon="-1.83667">
        <ele>17.73</ele>
        <time>2019-11-08T12:34:05.001Z</time>
      </trkpt>
      <trkpt lat="46.58179" lon="-1.83717">
        <ele>8.06</ele>
        <time>2019-11-08T12:34:35.001Z</time>
      </trkpt>
      <trkpt lat="46.58304" lon="-1.8376">
        <ele>10.022</ele>
        <time>2019-11-08T12:35:05.001Z</time>
      </trkpt>
      <trkpt lat="46.58414" lon="-1.83872">
        <ele>6.79</ele>
        <time>2019-11-08T12:35:38.001Z</time>
      </trkpt>
      <trkpt lat="46.58562" lon="-1.83944">
        <ele>5.194</ele>
        <time>2019-11-08T12:36:08.001Z</time>
      </trkpt>
      <trkpt lat="46.58689" lon="-1.83895">
        <ele>10.557</ele>
        <time>2019-11-08T12:36:38.001Z</time>
      </trkpt>
      <trkpt lat="46.58859" lon="-1.83825">
        <ele>12.573</ele>
        <time>2019-11-08T12:37:11.001Z</time>
      </trkpt>
      <trkpt lat="46.58988" lon="-1.83772">
        <ele>5.857</ele>
        <time>2019-11-08T12:37:41.001Z</time>
      </trkpt>
      <trkpt lat="46.59097" lon="-1.83643">
        <ele>6.912</ele>
        <time>2019-11-08T12:38:11.001Z</time>
      </trkpt>
      <trkpt lat="46.59215" lon="-1.83513">
        <ele>6.247</ele>
        <time>2019-11-08T12:38:44.001Z</time>
      </trkpt>
      <trkpt lat="46.59274" lon="-1.83353">
        <ele>7.045</ele>
        <time>2019-11-08T12:39:14.001Z</time>
      </trkpt>
      <trkpt lat="46.59368" lon="-1.83347">
        <ele>7.407</ele>
        <time>2019-11-08T12:39:44.001Z</time>
      </trkpt>
      <trkpt lat="46.5947" lon="-1.83354">
        <ele>8.315</ele>
        <time>2019-11-08T12:40:17.001Z</time>
      </trkpt>
      <trkpt lat="46.59567" lon="-1.83292">
        <ele>8.938</ele>
        <time>2019-11-08T12:40:47.001Z</time>
      </trkpt>
      <trkpt lat="46.59558" lon="-1.8348">
        <ele>8.899</ele>
        <time>2019-11-08T12:41:17.001Z</time>
      </trkpt>
      <trkpt lat="46.59599" lon="-1.83627">
        <ele>9.066</ele>
        <time>2019-11-08T12:41:47.001Z</time>
      </trkpt>
      <trkpt lat="46.59729" lon="-1.83594">
        <ele>6.317</ele>
        <time>2019-11-08T12:42:20.001Z</time>
      </trkpt>
      <trkpt lat="46.59841" lon="-1.83565">
        <ele>5.455</ele>
        <time>2019-11-08T12:42:50.001Z</time>
      </trkpt>
      <trkpt lat="46.59948" lon="-1.83582">
        <ele>10.291</ele>
        <time>2019-11-08T12:43:20.001Z</time>
      </trkpt>
      <trkpt lat="46.60058" lon="-1.83578">
        <ele>8.399</ele>
        <time>2019-11-08T12:43:53.001Z</time>
      </trkpt>
      <trkpt lat="46.60152" lon="-1.83642">
        <ele>11.912</ele>
        <time>2019-11-08T12:44:23.001Z</time>
      </trkpt>
      <trkpt lat="46.60257" lon="-1.83759">
        <ele>13.071</ele>
        <time>2019-11-08T12:44:53.001Z</time>
      </trkpt>
      <trkpt lat="46.60327" lon="-1.83956">
        <ele>6.09</ele>
        <time>2019-11-08T12:45:26.001Z</time>
      </trkpt>
      <trkpt lat="46.60417" lon="-1.84043">
        <ele>11.788</ele>
        <time>2019-11-08T12:45:56.001Z</time>
      </trkpt>
      <trkpt lat="46.60393" lon="-1.8424">
        <ele>10.446</ele>
        <time>2019-11-08T12:46:26.001Z</time>
      </trkpt>
      <trkpt lat="46.60352" lon="-1.84495">
        <ele>5.808</ele>
        <time>2019-11-08T12:46:59.001Z</time>
      </trkpt>
      <trkpt lat="46.60324" lon="-1.84697">
        <ele>4.747</ele>
        <time>2019-11-08T12:47:29.001Z</time>
      </trkpt>
      <trkpt lat="46.60289" lon="-1.84877">
        <ele>4.116</ele>
        <time>2019-11-08T12:47:59.001Z</time>
      </trkpt>
      <trkpt lat="46.60282" lon="-1.8502">
        <ele>7.216</ele>
        <time>2019-11-08T12:48:38.001Z</time>
      </trkpt>
      <trkpt lat="46.60345" lon="-1.85052">
        <ele>9.34</ele>
        <time>2019-11-08T12:52:11.001Z</time>
      </trkpt>
      <trkpt lat="46.60435" lon="-1.85088">
        <ele>13.119</ele>
        <time>2019-11-08T12:52:41.001Z</time>
      </trkpt>
      <trkpt lat="46.60557" lon="-1.85151">
        <ele>12.911</ele>
        <time>2019-11-08T12:53:11.001Z</time>
      </trkpt>
      <trkpt lat="46.60679" lon="-1.85209">
        <ele>14.066</ele>
        <time>2019-11-08T12:53:44.001Z</time>
      </trkpt>
      <trkpt lat="46.60758" lon="-1.85246">
        <ele>14.046</ele>
        <time>2019-11-08T12:54:14.001Z</time>
      </trkpt>
      <trkpt lat="46.60824" lon="-1.85302">
        <ele>14.396</ele>
        <time>2019-11-08T12:54:44.001Z</time>
      </trkpt>
      <trkpt lat="46.6093" lon="-1.85386">
        <ele>14.626</ele>
        <time>2019-11-08T12:55:17.001Z</time>
      </trkpt>
      <trkpt lat="46.61034" lon="-1.85438">
        <ele>16.295</ele>
        <time>2019-11-08T12:55:47.001Z</time>
      </trkpt>
      <trkpt lat="46.61127" lon="-1.85506">
        <ele>17.606</ele>
        <time>2019-11-08T12:56:17.001Z</time>
      </trkpt>
      <trkpt lat="46.61194" lon="-1.85674">
        <ele>13.523</ele>
        <time>2019-11-08T12:56:50.001Z</time>
      </trkpt>
      <trkpt lat="46.61247" lon="-1.8589">
        <ele>10.677</ele>
        <time>2019-11-08T12:57:20.001Z</time>
      </trkpt>
      <trkpt lat="46.61294" lon="-1.86043">
        <ele>8.202</ele>
        <time>2019-11-08T12:57:50.001Z</time>
      </trkpt>
      <trkpt lat="46.61328" lon="-1.86064">
        <ele>7.69</ele>
        <time>2019-11-08T12:59:14.001Z</time>
      </trkpt>
      <trkpt lat="46.61364" lon="-1.86014">
        <ele>11.014</ele>
        <time>2019-11-08T13:02:38.001Z</time>
      </trkpt>
      <trkpt lat="46.61408" lon="-1.85895">
        <ele>16.694</ele>
        <time>2019-11-08T13:03:08.001Z</time>
      </trkpt>
      <trkpt lat="46.61444" lon="-1.85985">
        <ele>11.685</ele>
        <time>2019-11-08T13:03:41.001Z</time>
      </trkpt>
      <trkpt lat="46.61466" lon="-1.86126">
        <ele>10.051</ele>
        <time>2019-11-08T13:04:11.001Z</time>
      </trkpt>
      <trkpt lat="46.61519" lon="-1.86155">
        <ele>12.838</ele>
        <time>2019-11-08T13:04:44.001Z</time>
      </trkpt>
      <trkpt lat="46.6161" lon="-1.86233">
        <ele>17.647</ele>
        <time>2019-11-08T13:05:14.001Z</time>
      </trkpt>
      <trkpt lat="46.61589" lon="-1.86405">
        <ele>16.73</ele>
        <time>2019-11-08T13:05:47.001Z</time>
      </trkpt>
      <trkpt lat="46.61613" lon="-1.86552">
        <ele>10.711</ele>
        <time>2019-11-08T13:06:17.001Z</time>
      </trkpt>
      <trkpt lat="46.61631" lon="-1.86751">
        <ele>8.583</ele>
        <time>2019-11-08T13:06:47.001Z</time>
      </trkpt>
      <trkpt lat="46.61675" lon="-1.86933">
        <ele>10.44</ele>
        <time>2019-11-08T13:07:20.001Z</time>
      </trkpt>
      <trkpt lat="46.61757" lon="-1.87051">
        <ele>11.987</ele>
        <time>2019-11-08T13:07:50.001Z</time>
      </trkpt>
      <trkpt lat="46.61859" lon="-1.87141">
        <ele>13.675</ele>
        <time>2019-11-08T13:08:20.001Z</time>
      </trkpt>
      <trkpt lat="46.6196" lon="-1.87201">
        <ele>17.547</ele>
        <time>2019-11-08T13:08:53.001Z</time>
      </trkpt>
      <trkpt lat="46.62075" lon="-1.87239">
        <ele>19.404</ele>
        <time>2019-11-08T13:09:23.001Z</time>
      </trkpt>
      <trkpt lat="46.62205" lon="-1.8725">
        <ele>19.532</ele>
        <time>2019-11-08T13:09:53.001Z</time>
      </trkpt>
      <trkpt lat="46.62319" lon="-1.87324">
        <ele>16.326</ele>
        <time>2019-11-08T13:10:26.001Z</time>
      </trkpt>
      <trkpt lat="46.62444" lon="-1.87371">
        <ele>23.512</ele>
        <time>2019-11-08T13:10:56.001Z</time>
      </trkpt>
      <trkpt lat="46.62592" lon="-1.87372">
        <ele>27.479</ele>
        <time>2019-11-08T13:11:26.001Z</time>
      </trkpt>
      <trkpt lat="46.62674" lon="-1.87376">
        <ele>26.824</ele>
        <time>2019-11-08T13:12:02Z</time>
      </trkpt>
      <trkpt lat="46.62708" lon="-1.8742">
        <ele>27.651</ele>
        <time>2019-11-08T13:16:14.001Z</time>
      </trkpt>
      <trkpt lat="46.62789" lon="-1.87474">
        <ele>30.778</ele>
        <time>2019-11-08T13:16:44.001Z</time>
      </trkpt>
      <trkpt lat="46.62872" lon="-1.87557">
        <ele>30.274</ele>
        <time>2019-11-08T13:17:14.001Z</time>
      </trkpt>
      <trkpt lat="46.62922" lon="-1.87699">
        <ele>18.604</ele>
        <time>2019-11-08T13:17:47.001Z</time>
      </trkpt>
      <trkpt lat="46.62984" lon="-1.87769">
        <ele>23.494</ele>
        <time>2019-11-08T13:18:17.001Z</time>
      </trkpt>
      <trkpt lat="46.63021" lon="-1.87912">
        <ele>23.572</ele>
        <time>2019-11-08T13:18:47.001Z</time>
      </trkpt>
      <trkpt lat="46.6309" lon="-1.88044">
        <ele>16.744</ele>
        <time>2019-11-08T13:19:20.001Z</time>
      </trkpt>
      <trkpt lat="46.63166" lon="-1.88235">
        <ele>12.274</ele>
        <time>2019-11-08T13:19:50.001Z</time>
      </trkpt>
      <trkpt lat="46.6317" lon="-1.88416">
        <ele>12.708</ele>
        <time>2019-11-08T13:20:20.001Z</time>
      </trkpt>
      <trkpt lat="46.63265" lon="-1.8858">
        <ele>11.406</ele>
        <time>2019-11-08T13:20:53.001Z</time>
      </trkpt>
      <trkpt lat="46.63343" lon="-1.88704">
        <ele>13.084</ele>
        <time>2019-11-08T13:21:23.001Z</time>
      </trkpt>
      <trkpt lat="46.63424" lon="-1.88808">
        <ele>14.053</ele>
        <time>2019-11-08T13:21:53.001Z</time>
      </trkpt>
      <trkpt lat="46.63496" lon="-1.88983">
        <ele>11.974</ele>
        <time>2019-11-08T13:22:26.001Z</time>
      </trkpt>
      <trkpt lat="46.63583" lon="-1.89103">
        <ele>11.7</ele>
        <time>2019-11-08T13:22:56.001Z</time>
      </trkpt>
      <trkpt lat="46.63656" lon="-1.89174">
        <ele>18.395</ele>
        <time>2019-11-08T13:23:26.001Z</time>
      </trkpt>
      <trkpt lat="46.63748" lon="-1.89216">
        <ele>17.12</ele>
        <time>2019-11-08T13:25:02Z</time>
      </trkpt>
      <trkpt lat="46.63834" lon="-1.89327">
        <ele>18.03</ele>
        <time>2019-11-08T13:25:32.001Z</time>
      </trkpt>
      <trkpt lat="46.63944" lon="-1.8944">
        <ele>18.565</ele>
        <time>2019-11-08T13:26:02Z</time>
      </trkpt>
      <trkpt lat="46.64039" lon="-1.89425">
        <ele>25.65</ele>
        <time>2019-11-08T13:26:38.001Z</time>
      </trkpt>
      <trkpt lat="46.64117" lon="-1.89426">
        <ele>28.273</ele>
        <time>2019-11-08T13:27:11.001Z</time>
      </trkpt>
      <trkpt lat="46.64193" lon="-1.89448">
        <ele>30.462</ele>
        <time>2019-11-08T13:27:41.001Z</time>
      </trkpt>
      <trkpt lat="46.64274" lon="-1.89474">
        <ele>31.366</ele>
        <time>2019-11-08T13:28:11.001Z</time>
      </trkpt>
      <trkpt lat="46.64323" lon="-1.89364">
        <ele>29.586</ele>
        <time>2019-11-08T13:28:44.001Z</time>
      </trkpt>
      <trkpt lat="46.64425" lon="-1.89374">
        <ele>32.475</ele>
        <time>2019-11-08T13:29:14.001Z</time>
      </trkpt>
      <trkpt lat="46.64536" lon="-1.89349">
        <ele>43.59</ele>
        <time>2019-11-08T13:29:44.001Z</time>
      </trkpt>
      <trkpt lat="46.64646" lon="-1.89395">
        <ele>36.231</ele>
        <time>2019-11-08T13:30:17.001Z</time>
      </trkpt>
      <trkpt lat="46.64776" lon="-1.89439">
        <ele>28.051</ele>
        <time>2019-11-08T13:30:47.001Z</time>
      </trkpt>
      <trkpt lat="46.64878" lon="-1.89321">
        <ele>28.394</ele>
        <time>2019-11-08T13:31:17.001Z</time>
      </trkpt>
      <trkpt lat="46.64961" lon="-1.89477">
        <ele>25.428</ele>
        <time>2019-11-08T13:31:50.001Z</time>
      </trkpt>
      <trkpt lat="46.65049" lon="-1.89669">
        <ele>15.987</ele>
        <time>2019-11-08T13:32:20.001Z</time>
      </trkpt>
      <trkpt lat="46.65129" lon="-1.89755">
        <ele>14.823</ele>
        <time>2019-11-08T13:32:50.001Z</time>
      </trkpt>
      <trkpt lat="46.65293" lon="-1.89755">
        <ele>9.144</ele>
        <time>2019-11-08T13:33:23.001Z</time>
      </trkpt>
      <trkpt lat="46.65415" lon="-1.89635">
        <ele>10.146</ele>
        <time>2019-11-08T13:33:53.001Z</time>
      </trkpt>
      <trkpt lat="46.6555" lon="-1.89675">
        <ele>14.277</ele>
        <time>2019-11-08T13:34:23.001Z</time>
      </trkpt>
      <trkpt lat="46.65682" lon="-1.89757">
        <ele>17.908</ele>
        <time>2019-11-08T13:34:53.001Z</time>
      </trkpt>
      <trkpt lat="46.65836" lon="-1.89859">
        <ele>20.616</ele>
        <time>2019-11-08T13:35:26.001Z</time>
      </trkpt>
      <trkpt lat="46.65969" lon="-1.8994">
        <ele>15.164</ele>
        <time>2019-11-08T13:35:56.001Z</time>
      </trkpt>
      <trkpt lat="46.66093" lon="-1.90065">
        <ele>10.844</ele>
        <time>2019-11-08T13:36:26.001Z</time>
      </trkpt>
      <trkpt lat="46.66093" lon="-1.90262">
        <ele>16.365</ele>
        <time>2019-11-08T13:36:59.001Z</time>
      </trkpt>
      <trkpt lat="46.661" lon="-1.90487">
        <ele>12.79</ele>
        <time>2019-11-08T13:37:29.001Z</time>
      </trkpt>
      <trkpt lat="46.66225" lon="-1.90608">
        <ele>12.282</ele>
        <time>2019-11-08T13:37:59.001Z</time>
      </trkpt>
      <trkpt lat="46.66389" lon="-1.90614">
        <ele>9.214</ele>
        <time>2019-11-08T13:38:32.001Z</time>
      </trkpt>
      <trkpt lat="46.66544" lon="-1.90601">
        <ele>11.253</ele>
        <time>2019-11-08T13:39:02Z</time>
      </trkpt>
      <trkpt lat="46.66673" lon="-1.90661">
        <ele>10.354</ele>
        <time>2019-11-08T13:39:32.001Z</time>
      </trkpt>
      <trkpt lat="46.66685" lon="-1.90916">
        <ele>4.382</ele>
        <time>2019-11-08T13:40:05.001Z</time>
      </trkpt>
      <trkpt lat="46.66697" lon="-1.91094">
        <ele>9.142</ele>
        <time>2019-11-08T13:40:35.001Z</time>
      </trkpt>
      <trkpt lat="46.66767" lon="-1.9095">
        <ele>10.49</ele>
        <time>2019-11-08T13:41:05.001Z</time>
      </trkpt>
      <trkpt lat="46.66913" lon="-1.90834">
        <ele>4.557</ele>
        <time>2019-11-08T13:41:38.001Z</time>
      </trkpt>
      <trkpt lat="46.67061" lon="-1.90844">
        <ele>9.185</ele>
        <time>2019-11-08T13:42:08.001Z</time>
      </trkpt>
      <trkpt lat="46.67157" lon="-1.90812">
        <ele>8.169</ele>
        <time>2019-11-08T13:42:38.001Z</time>
      </trkpt>
      <trkpt lat="46.67242" lon="-1.90955">
        <ele>0.515</ele>
        <time>2019-11-08T13:43:08.001Z</time>
      </trkpt>
      <trkpt lat="46.6734" lon="-1.91142">
        <ele>4</ele>
        <time>2019-11-08T13:43:41.001Z</time>
      </trkpt>
      <trkpt lat="46.67405" lon="-1.91297">
        <ele>4.9</ele>
        <time>2019-11-08T13:44:11.001Z</time>
      </trkpt>
      <trkpt lat="46.67469" lon="-1.91401">
        <ele>2.326</ele>
        <time>2019-11-08T13:44:41.001Z</time>
      </trkpt>
      <trkpt lat="46.67546" lon="-1.91549">
        <ele>6.611</ele>
        <time>2019-11-08T13:45:14.001Z</time>
      </trkpt>
      <trkpt lat="46.67613" lon="-1.91698">
        <ele>10.612</ele>
        <time>2019-11-08T13:45:44.001Z</time>
      </trkpt>
      <trkpt lat="46.67702" lon="-1.91863">
        <ele>5.879</ele>
        <time>2019-11-08T13:46:14.001Z</time>
      </trkpt>
      <trkpt lat="46.67796" lon="-1.9202">
        <ele>4.613</ele>
        <time>2019-11-08T13:46:47.001Z</time>
      </trkpt>
      <trkpt lat="46.67865" lon="-1.92193">
        <ele>3.78</ele>
        <time>2019-11-08T13:47:17.001Z</time>
      </trkpt>
      <trkpt lat="46.67968" lon="-1.92277">
        <ele>9.038</ele>
        <time>2019-11-08T13:47:47.001Z</time>
      </trkpt>
      <trkpt lat="46.68059" lon="-1.92392">
        <ele>12.168</ele>
        <time>2019-11-08T13:48:20.001Z</time>
      </trkpt>
      <trkpt lat="46.68122" lon="-1.92535">
        <ele>8.03</ele>
        <time>2019-11-08T13:48:50.001Z</time>
      </trkpt>
      <trkpt lat="46.68215" lon="-1.92686">
        <ele>6.982</ele>
        <time>2019-11-08T13:49:20.001Z</time>
      </trkpt>
      <trkpt lat="46.68315" lon="-1.92827">
        <ele>7.42</ele>
        <time>2019-11-08T13:49:53.001Z</time>
      </trkpt>
      <trkpt lat="46.6842" lon="-1.92973">
        <ele>8.494</ele>
        <time>2019-11-08T13:50:23.001Z</time>
      </trkpt>
      <trkpt lat="46.68524" lon="-1.93092">
        <ele>6.397</ele>
        <time>2019-11-08T13:50:53.001Z</time>
      </trkpt>
      <trkpt lat="46.68629" lon="-1.93188">
        <ele>9.677</ele>
        <time>2019-11-08T13:51:23.001Z</time>
      </trkpt>
      <trkpt lat="46.68759" lon="-1.93231">
        <ele>9.443</ele>
        <time>2019-11-08T13:51:56.001Z</time>
      </trkpt>
      <trkpt lat="46.68907" lon="-1.93181">
        <ele>8.322</ele>
        <time>2019-11-08T13:52:26.001Z</time>
      </trkpt>
      <trkpt lat="46.69033" lon="-1.9316">
        <ele>5.814</ele>
        <time>2019-11-08T13:52:56.001Z</time>
      </trkpt>
      <trkpt lat="46.69144" lon="-1.93275">
        <ele>5.561</ele>
        <time>2019-11-08T13:53:29.001Z</time>
      </trkpt>
      <trkpt lat="46.69225" lon="-1.9332">
        <ele>6.378</ele>
        <time>2019-11-08T13:53:59.001Z</time>
      </trkpt>
      <trkpt lat="46.69272" lon="-1.93355">
        <ele>6.801</ele>
        <time>2019-11-08T14:02:38.001Z</time>
      </trkpt>
      <trkpt lat="46.69273" lon="-1.93361">
        <ele>6.676</ele>
        <time>2019-11-08T14:05:44.001Z</time>
      </trkpt>
      <trkpt lat="46.69306" lon="-1.93323">
        <ele>3.8</ele>
        <time>2019-11-08T14:19:11.001Z</time>
      </trkpt>
      <trkpt lat="46.69395" lon="-1.93344">
        <ele>6.885</ele>
        <time>2019-11-08T14:19:41.001Z</time>
      </trkpt>
      <trkpt lat="46.69515" lon="-1.93379">
        <ele>17.482</ele>
        <time>2019-11-08T14:20:14.001Z</time>
      </trkpt>
      <trkpt lat="46.69606" lon="-1.93425">
        <ele>18.757</ele>
        <time>2019-11-08T14:20:44.001Z</time>
      </trkpt>
      <trkpt lat="46.69613" lon="-1.93499">
        <ele>26.069</ele>
        <time>2019-11-08T14:21:14.001Z</time>
      </trkpt>
      <trkpt lat="46.69506" lon="-1.93585">
        <ele>18.978</ele>
        <time>2019-11-08T14:21:47.001Z</time>
      </trkpt>
      <trkpt lat="46.69445" lon="-1.93712">
        <ele>12.111</ele>
        <time>2019-11-08T14:22:17.001Z</time>
      </trkpt>
      <trkpt lat="46.69517" lon="-1.9389">
        <ele>19.829</ele>
        <time>2019-11-08T14:22:47.001Z</time>
      </trkpt>
      <trkpt lat="46.69592" lon="-1.94045">
        <ele>24.641</ele>
        <time>2019-11-08T14:23:17.001Z</time>
      </trkpt>
      <trkpt lat="46.69666" lon="-1.94158">
        <ele>22.048</ele>
        <time>2019-11-08T14:23:50.001Z</time>
      </trkpt>
      <trkpt lat="46.69673" lon="-1.94188">
        <ele>25.604</ele>
        <time>2019-11-08T14:24:44.001Z</time>
      </trkpt>
      <trkpt lat="46.69695" lon="-1.94291">
        <ele>30.836</ele>
        <time>2019-11-08T14:38:17.001Z</time>
      </trkpt>
      <trkpt lat="46.69748" lon="-1.94473">
        <ele>48.67</ele>
        <time>2019-11-08T14:38:50.001Z</time>
      </trkpt>
      <trkpt lat="46.69801" lon="-1.94654">
        <ele>41.875</ele>
        <time>2019-11-08T14:39:20.001Z</time>
      </trkpt>
      <trkpt lat="46.69804" lon="-1.9477">
        <ele>36.548</ele>
        <time>2019-11-08T14:39:53.001Z</time>
      </trkpt>
      <trkpt lat="46.6973" lon="-1.94931">
        <ele>26.886</ele>
        <time>2019-11-08T14:40:26.001Z</time>
      </trkpt>
      <trkpt lat="46.69656" lon="-1.95055">
        <ele>19.616</ele>
        <time>2019-11-08T14:40:56.001Z</time>
      </trkpt>
      <trkpt lat="46.69598" lon="-1.95211">
        <ele>13.582</ele>
        <time>2019-11-08T14:41:26.001Z</time>
      </trkpt>
      <trkpt lat="46.6956" lon="-1.95421">
        <ele>9.005</ele>
        <time>2019-11-08T14:41:59.001Z</time>
      </trkpt>
      <trkpt lat="46.69499" lon="-1.95613">
        <ele>6.331</ele>
        <time>2019-11-08T14:42:29.001Z</time>
      </trkpt>
      <trkpt lat="46.69464" lon="-1.95826">
        <ele>4.354</ele>
        <time>2019-11-08T14:42:59.001Z</time>
      </trkpt>
      <trkpt lat="46.69387" lon="-1.96078">
        <ele>3.49</ele>
        <time>2019-11-08T14:43:32.001Z</time>
      </trkpt>
      <trkpt lat="46.69328" lon="-1.9617">
        <ele>11.311</ele>
        <time>2019-11-08T14:44:02Z</time>
      </trkpt>
      <trkpt lat="46.69325" lon="-1.96292">
        <ele>15.791</ele>
        <time>2019-11-08T14:44:32.001Z</time>
      </trkpt>
      <trkpt lat="46.69299" lon="-1.96453">
        <ele>10.022</ele>
        <time>2019-11-08T14:45:02Z</time>
      </trkpt>
      <trkpt lat="46.69325" lon="-1.96678">
        <ele>4.668</ele>
        <time>2019-11-08T14:45:35.001Z</time>
      </trkpt>
      <trkpt lat="46.69425" lon="-1.96815">
        <ele>1.852</ele>
        <time>2019-11-08T14:46:05.001Z</time>
      </trkpt>
      <trkpt lat="46.69557" lon="-1.96944">
        <ele>8.6</ele>
        <time>2019-11-08T14:46:35.001Z</time>
      </trkpt>
      <trkpt lat="46.69667" lon="-1.97058">
        <ele>3.85</ele>
        <time>2019-11-08T14:47:08.001Z</time>
      </trkpt>
      <trkpt lat="46.69756" lon="-1.97153">
        <ele>9.26</ele>
        <time>2019-11-08T14:47:38.001Z</time>
      </trkpt>
      <trkpt lat="46.69882" lon="-1.97254">
        <ele>6.218</ele>
        <time>2019-11-08T14:48:08.001Z</time>
      </trkpt>
      <trkpt lat="46.70016" lon="-1.97371">
        <ele>1.559</ele>
        <time>2019-11-08T14:48:41.001Z</time>
      </trkpt>
      <trkpt lat="46.70113" lon="-1.97502">
        <ele>3.564</ele>
        <time>2019-11-08T14:49:11.001Z</time>
      </trkpt>
      <trkpt lat="46.70191" lon="-1.97606">
        <ele>10.521</ele>
        <time>2019-11-08T14:49:41.001Z</time>
      </trkpt>
      <trkpt lat="46.70283" lon="-1.97714">
        <ele>11.436</ele>
        <time>2019-11-08T14:50:14.001Z</time>
      </trkpt>
      <trkpt lat="46.70387" lon="-1.97824">
        <ele>7.05</ele>
        <time>2019-11-08T14:50:44.001Z</time>
      </trkpt>
      <trkpt lat="46.70517" lon="-1.97922">
        <ele>5.653</ele>
        <time>2019-11-08T14:51:14.001Z</time>
      </trkpt>
      <trkpt lat="46.70682" lon="-1.97896">
        <ele>5.194</ele>
        <time>2019-11-08T14:51:47.001Z</time>
      </trkpt>
      <trkpt lat="46.70795" lon="-1.97917">
        <ele>9.774</ele>
        <time>2019-11-08T14:52:17.001Z</time>
      </trkpt>
      <trkpt lat="46.70884" lon="-1.97999">
        <ele>4.322</ele>
        <time>2019-11-08T14:52:47.001Z</time>
      </trkpt>
      <trkpt lat="46.70961" lon="-1.98054">
        <ele>9.223</ele>
        <time>2019-11-08T14:53:17.001Z</time>
      </trkpt>
      <trkpt lat="46.71088" lon="-1.98045">
        <ele>7.805</ele>
        <time>2019-11-08T14:53:50.001Z</time>
      </trkpt>
      <trkpt lat="46.7116" lon="-1.97974">
        <ele>5.241</ele>
        <time>2019-11-08T14:54:20.001Z</time>
      </trkpt>
      <trkpt lat="46.7123" lon="-1.97854">
        <ele>5.3</ele>
        <time>2019-11-08T14:54:50.001Z</time>
      </trkpt>
      <trkpt lat="46.71313" lon="-1.97733">
        <ele>8.3</ele>
        <time>2019-11-08T14:55:23.001Z</time>
      </trkpt>
      <trkpt lat="46.71384" lon="-1.97632">
        <ele>8.9</ele>
        <time>2019-11-08T14:55:53.001Z</time>
      </trkpt>
      <trkpt lat="46.71465" lon="-1.97515">
        <ele>10.6</ele>
        <time>2019-11-08T14:56:23.001Z</time>
      </trkpt>
      <trkpt lat="46.71567" lon="-1.97345">
        <ele>1.196</ele>
        <time>2019-11-08T14:56:56.001Z</time>
      </trkpt>
      <trkpt lat="46.71651" lon="-1.97194">
        <ele>2.088</ele>
        <time>2019-11-08T14:57:26.001Z</time>
      </trkpt>
      <trkpt lat="46.71721" lon="-1.971">
        <ele>9.079</ele>
        <time>2019-11-08T14:57:56.001Z</time>
      </trkpt>
      <trkpt lat="46.71802" lon="-1.96951">
        <ele>3.3</ele>
        <time>2019-11-08T14:58:29.001Z</time>
      </trkpt>
      <trkpt lat="46.71877" lon="-1.96899">
        <ele>1.644</ele>
        <time>2019-11-08T14:58:59.001Z</time>
      </trkpt>
      <trkpt lat="46.71969" lon="-1.97061">
        <ele>4.899</ele>
        <time>2019-11-08T14:59:29.001Z</time>
      </trkpt>
      <trkpt lat="46.72066" lon="-1.97254">
        <ele>6.171</ele>
        <time>2019-11-08T15:00:02Z</time>
      </trkpt>
      <trkpt lat="46.72158" lon="-1.97414">
        <ele>9.3</ele>
        <time>2019-11-08T15:00:32.001Z</time>
      </trkpt>
      <trkpt lat="46.72248" lon="-1.97575">
        <ele>11.9</ele>
        <time>2019-11-08T15:01:02Z</time>
      </trkpt>
      <trkpt lat="46.72333" lon="-1.97722">
        <ele>0.978</ele>
        <time>2019-11-08T15:01:32.001Z</time>
      </trkpt>
      <trkpt lat="46.72419" lon="-1.97872">
        <ele>4.271</ele>
        <time>2019-11-08T15:02:05.001Z</time>
      </trkpt>
      <trkpt lat="46.72517" lon="-1.9798">
        <ele>3.377</ele>
        <time>2019-11-08T15:02:35.001Z</time>
      </trkpt>
      <trkpt lat="46.72641" lon="-1.98065">
        <ele>2.623</ele>
        <time>2019-11-08T15:03:05.001Z</time>
      </trkpt>
      <trkpt lat="46.72783" lon="-1.98152">
        <ele>0.62</ele>
        <time>2019-11-08T15:03:38.001Z</time>
      </trkpt>
      <trkpt lat="46.72903" lon="-1.98205">
        <ele>3.958</ele>
        <time>2019-11-08T15:04:08.001Z</time>
      </trkpt>
      <trkpt lat="46.73023" lon="-1.98258">
        <ele>3.82</ele>
        <time>2019-11-08T15:04:38.001Z</time>
      </trkpt>
      <trkpt lat="46.73152" lon="-1.98312">
        <ele>7.478</ele>
        <time>2019-11-08T15:05:11.001Z</time>
      </trkpt>
      <trkpt lat="46.73269" lon="-1.98409">
        <ele>6.695</ele>
        <time>2019-11-08T15:05:41.001Z</time>
      </trkpt>
      <trkpt lat="46.73359" lon="-1.98516">
        <ele>3.448</ele>
        <time>2019-11-08T15:06:11.001Z</time>
      </trkpt>
      <trkpt lat="46.73374" lon="-1.987">
        <ele>6.389</ele>
        <time>2019-11-08T15:06:44.001Z</time>
      </trkpt>
      <trkpt lat="46.73477" lon="-1.98793">
        <ele>7.132</ele>
        <time>2019-11-08T15:07:14.001Z</time>
      </trkpt>
      <trkpt lat="46.73587" lon="-1.98899">
        <ele>3.835</ele>
        <time>2019-11-08T15:07:44.001Z</time>
      </trkpt>
      <trkpt lat="46.737" lon="-1.9901">
        <ele>5.032</ele>
        <time>2019-11-08T15:08:17.001Z</time>
      </trkpt>
      <trkpt lat="46.73828" lon="-1.9913">
        <ele>7.8</ele>
        <time>2019-11-08T15:08:47.001Z</time>
      </trkpt>
      <trkpt lat="46.73921" lon="-1.99222">
        <ele>1.943</ele>
        <time>2019-11-08T15:09:17.001Z</time>
      </trkpt>
      <trkpt lat="46.74023" lon="-1.99267">
        <ele>2.579</ele>
        <time>2019-11-08T15:09:47.001Z</time>
      </trkpt>
      <trkpt lat="46.74171" lon="-1.99283">
        <ele>4.938</ele>
        <time>2019-11-08T15:10:20.001Z</time>
      </trkpt>
      <trkpt lat="46.74212" lon="-1.99441">
        <ele>0.921</ele>
        <time>2019-11-08T15:10:50.001Z</time>
      </trkpt>
      <trkpt lat="46.74168" lon="-1.99624">
        <ele>1.33</ele>
        <time>2019-11-08T15:11:20.001Z</time>
      </trkpt>
      <trkpt lat="46.74142" lon="-1.99865">
        <ele>3.628</ele>
        <time>2019-11-08T15:11:53.001Z</time>
      </trkpt>
      <trkpt lat="46.74127" lon="-2.00094">
        <ele>0.6</ele>
        <time>2019-11-08T15:12:23.001Z</time>
      </trkpt>
      <trkpt lat="46.7408" lon="-2.00305">
        <ele>1.018</ele>
        <time>2019-11-08T15:12:53.001Z</time>
      </trkpt>
      <trkpt lat="46.74045" lon="-2.00504">
        <ele>4.5</ele>
        <time>2019-11-08T15:13:26.001Z</time>
      </trkpt>
      <trkpt lat="46.74035" lon="-2.00678">
        <ele>2.7</ele>
        <time>2019-11-08T15:13:56.001Z</time>
      </trkpt>
      <trkpt lat="46.74148" lon="-2.00715">
        <ele>1.156</ele>
        <time>2019-11-08T15:14:26.001Z</time>
      </trkpt>
      <trkpt lat="46.74286" lon="-2.00796">
        <ele>1.87</ele>
        <time>2019-11-08T15:14:59.001Z</time>
      </trkpt>
      <trkpt lat="46.74396" lon="-2.00908">
        <ele>2.8</ele>
        <time>2019-11-08T15:15:29.001Z</time>
      </trkpt>
      <trkpt lat="46.74513" lon="-2.01006">
        <ele>4.8</ele>
        <time>2019-11-08T15:15:59.001Z</time>
      </trkpt>
      <trkpt lat="46.74618" lon="-2.01133">
        <ele>1.498</ele>
        <time>2019-11-08T15:16:32.001Z</time>
      </trkpt>
      <trkpt lat="46.7473" lon="-2.01228">
        <ele>7.042</ele>
        <time>2019-11-08T15:17:02Z</time>
      </trkpt>
      <trkpt lat="46.74864" lon="-2.01305">
        <ele>5.466</ele>
        <time>2019-11-08T15:17:32.001Z</time>
      </trkpt>
      <trkpt lat="46.74998" lon="-2.01429">
        <ele>4.7</ele>
        <time>2019-11-08T15:18:02Z</time>
      </trkpt>
      <trkpt lat="46.751" lon="-2.01578">
        <ele>3.2</ele>
        <time>2019-11-08T15:18:35.001Z</time>
      </trkpt>
      <trkpt lat="46.75188" lon="-2.01717">
        <ele>1.46</ele>
        <time>2019-11-08T15:19:05.001Z</time>
      </trkpt>
      <trkpt lat="46.75283" lon="-2.01848">
        <ele>1.792</ele>
        <time>2019-11-08T15:19:35.001Z</time>
      </trkpt>
      <trkpt lat="46.75392" lon="-2.02013">
        <ele>1.518</ele>
        <time>2019-11-08T15:20:08.001Z</time>
      </trkpt>
      <trkpt lat="46.75486" lon="-2.0216">
        <ele>2.4</ele>
        <time>2019-11-08T15:20:38.001Z</time>
      </trkpt>
      <trkpt lat="46.75577" lon="-2.02293">
        <ele>0.253</ele>
        <time>2019-11-08T15:21:08.001Z</time>
      </trkpt>
      <trkpt lat="46.75693" lon="-2.02408">
        <ele>2.918</ele>
        <time>2019-11-08T15:21:41.001Z</time>
      </trkpt>
      <trkpt lat="46.75817" lon="-2.02473">
        <ele>3.746</ele>
        <time>2019-11-08T15:22:11.001Z</time>
      </trkpt>
      <trkpt lat="46.75945" lon="-2.02517">
        <ele>8.381</ele>
        <time>2019-11-08T15:22:41.001Z</time>
      </trkpt>
      <trkpt lat="46.76044" lon="-2.02643">
        <ele>11.057</ele>
        <time>2019-11-08T15:23:14.001Z</time>
      </trkpt>
      <trkpt lat="46.76182" lon="-2.02761">
        <ele>6.199</ele>
        <time>2019-11-08T15:23:44.001Z</time>
      </trkpt>
      <trkpt lat="46.76309" lon="-2.02882">
        <ele>2.994</ele>
        <time>2019-11-08T15:24:14.001Z</time>
      </trkpt>
      <trkpt lat="46.76378" lon="-2.03092">
        <ele>2.503</ele>
        <time>2019-11-08T15:24:47.001Z</time>
      </trkpt>
      <trkpt lat="46.76461" lon="-2.03285">
        <ele>2.526</ele>
        <time>2019-11-08T15:25:17.001Z</time>
      </trkpt>
      <trkpt lat="46.76542" lon="-2.03474">
        <ele>5.869</ele>
        <time>2019-11-08T15:25:47.001Z</time>
      </trkpt>
      <trkpt lat="46.7668" lon="-2.03578">
        <ele>5.679</ele>
        <time>2019-11-08T15:26:17.001Z</time>
      </trkpt>
      <trkpt lat="46.76814" lon="-2.03413">
        <ele>6.926</ele>
        <time>2019-11-08T15:26:50.001Z</time>
      </trkpt>
      <trkpt lat="46.76945" lon="-2.03247">
        <ele>3.2</ele>
        <time>2019-11-08T15:27:20.001Z</time>
      </trkpt>
      <trkpt lat="46.77061" lon="-2.0323">
        <ele>0.236</ele>
        <time>2019-11-08T15:27:50.001Z</time>
      </trkpt>
      <trkpt lat="46.77165" lon="-2.0343">
        <ele>3.1</ele>
        <time>2019-11-08T15:28:23.001Z</time>
      </trkpt>
      <trkpt lat="46.77267" lon="-2.03601">
        <ele>5.733</ele>
        <time>2019-11-08T15:28:53.001Z</time>
      </trkpt>
      <trkpt lat="46.77402" lon="-2.03718">
        <ele>6.763</ele>
        <time>2019-11-08T15:29:23.001Z</time>
      </trkpt>
      <trkpt lat="46.77558" lon="-2.03769">
        <ele>3.219</ele>
        <time>2019-11-08T15:29:56.001Z</time>
      </trkpt>
      <trkpt lat="46.77686" lon="-2.03816">
        <ele>2.006</ele>
        <time>2019-11-08T15:30:26.001Z</time>
      </trkpt>
      <trkpt lat="46.77803" lon="-2.03882">
        <ele>3.304</ele>
        <time>2019-11-08T15:30:56.001Z</time>
      </trkpt>
      <trkpt lat="46.77868" lon="-2.04009">
        <ele>2.29</ele>
        <time>2019-11-08T15:31:29.001Z</time>
      </trkpt>
      <trkpt lat="46.779" lon="-2.04185">
        <ele>0.156</ele>
        <time>2019-11-08T15:31:59.001Z</time>
      </trkpt>
      <trkpt lat="46.77915" lon="-2.04377">
        <ele>3</ele>
        <time>2019-11-08T15:32:29.001Z</time>
      </trkpt>
      <trkpt lat="46.77987" lon="-2.04521">
        <ele>4.996</ele>
        <time>2019-11-08T15:33:02Z</time>
      </trkpt>
      <trkpt lat="46.77937" lon="-2.04676">
        <ele>4.011</ele>
        <time>2019-11-08T15:33:32.001Z</time>
      </trkpt>
      <trkpt lat="46.77857" lon="-2.04855">
        <ele>4.475</ele>
        <time>2019-11-08T15:34:02Z</time>
      </trkpt>
      <trkpt lat="46.77808" lon="-2.05042">
        <ele>4.483</ele>
        <time>2019-11-08T15:34:32.001Z</time>
      </trkpt>
      <trkpt lat="46.7789" lon="-2.05181">
        <ele>6.714</ele>
        <time>2019-11-08T15:35:05.001Z</time>
      </trkpt>
      <trkpt lat="46.77928" lon="-2.05338">
        <ele>7.977</ele>
        <time>2019-11-08T15:35:35.001Z</time>
      </trkpt>
      <trkpt lat="46.77933" lon="-2.05485">
        <ele>8.682</ele>
        <time>2019-11-08T15:36:05.001Z</time>
      </trkpt>
      <trkpt lat="46.78055" lon="-2.05676">
        <ele>3.886</ele>
        <time>2019-11-08T15:36:38.001Z</time>
      </trkpt>
      <trkpt lat="46.78136" lon="-2.05876">
        <ele>4.64</ele>
        <time>2019-11-08T15:37:08.001Z</time>
      </trkpt>
      <trkpt lat="46.78224" lon="-2.06076">
        <ele>7.758</ele>
        <time>2019-11-08T15:37:38.001Z</time>
      </trkpt>
      <trkpt lat="46.78318" lon="-2.0629">
        <ele>1.427</ele>
        <time>2019-11-08T15:38:11.001Z</time>
      </trkpt>
      <trkpt lat="46.78395" lon="-2.06475">
        <ele>6.178</ele>
        <time>2019-11-08T15:38:41.001Z</time>
      </trkpt>
      <trkpt lat="46.78429" lon="-2.06636">
        <ele>8.433</ele>
        <time>2019-11-08T15:39:11.001Z</time>
      </trkpt>
      <trkpt lat="46.78333" lon="-2.06658">
        <ele>4.313</ele>
        <time>2019-11-08T15:39:44.001Z</time>
      </trkpt>
      <trkpt lat="46.78311" lon="-2.06676">
        <ele>7.89</ele>
        <time>2019-11-08T15:46:32.001Z</time>
      </trkpt>
      <trkpt lat="46.78301" lon="-2.06645">
        <ele>4.435</ele>
        <time>2019-11-08T15:47:17.001Z</time>
      </trkpt>
      <trkpt lat="46.78322" lon="-2.0663">
        <ele>5.32</ele>
        <time>2019-11-08T15:50:05.001Z</time>
      </trkpt>
      <trkpt lat="46.78326" lon="-2.06626">
        <ele>4.242</ele>
        <time>2019-11-08T15:51:20.001Z</time>
      </trkpt>
    </trkseg>
  </trk>
</gpx>